Time;durP1;ratioP1;P1;durP2;ratioP2;P2;SDS_P1;SDS_P2;PMS_P1;PMS_P2;Temp;Humidity;BMP_temperature;BMP_pressure;BME280_temperature;BME280_humidity;BME280_pressure;Samples;Min_cycle;Max_cycle;Signal;HPM_P1;HPM_P2
2022/11/23 00:01:31;;;;;;;94.32;40.33;;;;;;;2.61;93.45;99890.45;1790587;77;27469;-83
2022/11/23 00:04:02;;;;;;;91.28;37.05;;;;;;;2.62;93.49;99898.73;1837682;77;26006;-84
2022/11/23 00:06:29;;;;;;;89.13;37.38;;;;;;;2.60;93.41;99895.91;1827115;78;25803;-83
2022/11/23 00:08:55;;;;;;;89.05;39.50;;;;;;;2.59;93.55;99888.97;1832297;77;26527;-84
2022/11/23 00:11:24;;;;;;;89.32;39.08;;;;;;;2.58;93.54;99888.63;1834150;77;25908;-84
2022/11/23 00:13:51;;;;;;;96.40;38.92;;;;;;;2.55;93.61;99882.30;1830549;77;27460;-84
2022/11/23 00:16:25;;;;;;;85.50;35.48;;;;;;;2.54;93.67;99884.14;1812808;77;26377;-84
2022/11/23 00:18:56;;;;;;;100.07;40.90;;;;;;;2.56;93.83;99886.14;1839863;76;25887;-83
2022/11/23 00:21:26;;;;;;;91.40;37.17;;;;;;;2.56;93.80;99894.07;1816994;77;26069;-85
2022/11/23 00:23:53;;;;;;;94.85;39.67;;;;;;;2.55;93.81;99893.72;1823175;78;25735;-83
2022/11/23 00:26:20;;;;;;;96.53;40.35;;;;;;;2.56;93.84;99883.98;1820527;78;27438;-82
2022/11/23 00:28:46;;;;;;;87.92;38.05;;;;;;;2.57;93.93;99881.17;1815005;76;25760;-82
2022/11/23 00:31:16;;;;;;;100.00;39.08;;;;;;;2.58;93.96;99880.69;1824134;78;26366;-83
2022/11/23 00:33:49;;;;;;;91.78;36.08;;;;;;;2.60;93.92;99886.17;1826726;76;26583;-81
2022/11/23 00:36:16;;;;;;;92.27;37.85;;;;;;;2.60;93.93;99894.09;1792634;79;25814;-84
2022/11/23 00:38:44;;;;;;;99.10;40.48;;;;;;;2.58;93.86;99900.03;1816914;78;27435;-84
2022/11/23 00:41:16;;;;;;;92.88;38.85;;;;;;;2.57;94.01;99900.16;1810810;78;25950;-84
2022/11/23 00:43:43;;;;;;;90.20;37.70;;;;;;;2.58;94.00;99897.88;1805254;77;26428;-84
2022/11/23 00:46:18;;;;;;;95.25;40.45;;;;;;;2.61;94.21;99901.55;1817832;77;25771;-83
2022/11/23 00:48:48;;;;;;;97.82;42.35;;;;;;;2.62;94.08;99899.22;1775143;79;25962;-84
2022/11/23 00:51:18;;;;;;;95.17;39.60;;;;;;;2.64;94.12;99904.70;1795355;78;27631;-82
2022/11/23 00:53:45;;;;;;;84.32;34.10;;;;;;;2.64;94.03;99894.13;1828246;76;25740;-82
2022/11/23 00:56:12;;;;;;;87.53;36.68;;;;;;;2.66;94.04;99892.64;1802768;78;26154;-85
2022/11/23 00:58:38;;;;;;;91.45;38.10;;;;;;;2.64;94.01;99891.97;1784786;78;26558;-84
2022/11/23 01:01:11;;;;;;;84.92;36.70;;;;;;;2.64;94.15;99890.64;1795812;78;25864;-83
2022/11/23 01:03:42;;;;;;;94.22;39.20;;;;;;;2.65;94.14;99898.94;1824575;76;28681;-82
2022/11/23 01:06:15;;;;;;;93.25;37.67;;;;;;;2.64;94.06;99898.58;1816450;76;29125;-83
2022/11/23 01:08:54;;;;;;;95.20;39.18;;;;;;;2.66;94.14;99900.58;1808040;78;25783;-84
2022/11/23 01:11:24;;;;;;;91.00;37.42;;;;;;;2.65;94.06;99905.54;1825330;76;26490;-83
2022/11/23 01:13:51;;;;;;;94.50;40.58;;;;;;;2.64;94.06;99901.22;1847009;76;25717;-82
2022/11/23 01:16:21;;;;;;;97.12;39.38;;;;;;;2.62;94.09;99907.99;1838624;76;27455;-83
2022/11/23 01:18:47;;;;;;;94.92;36.30;;;;;;;2.61;94.08;99909.48;1816701;76;26019;-84
2022/11/23 01:21:13;;;;;;;87.10;36.25;;;;;;;2.61;94.27;99915.57;1811550;76;26420;-83
2022/11/23 01:23:39;;;;;;;84.80;35.85;;;;;;;2.63;94.23;99914.92;1813902;76;25828;-82
2022/11/23 01:26:09;;;;;;;86.57;36.53;;;;;;;2.58;94.12;99911.93;1819805;76;25708;-83
2022/11/23 01:28:37;;;;;;;89.15;36.77;;;;;;;2.58;94.25;99912.41;1817264;77;28245;-83
2022/11/23 01:31:11;;;;;;;90.17;36.95;;;;;;;2.59;94.42;99916.22;1824856;76;25757;-83
2022/11/23 01:33:38;;;;;;;87.65;36.65;;;;;;;2.62;94.41;99915.09;1815743;76;25479;-84
2022/11/23 01:36:17;;;;;;;82.97;34.58;;;;;;;2.62;94.41;99917.73;1819598;76;25758;-83
2022/11/23 01:38:44;;;;;;;89.25;37.08;;;;;;;2.64;94.46;99919.73;1787322;78;26515;-84
2022/11/23 01:41:18;;;;;;;95.22;35.73;;;;;;;2.65;94.43;99923.53;1812063;77;28328;-83
2022/11/23 01:43:45;;;;;;;80.85;35.58;;;;;;;2.68;94.54;99930.33;1785515;78;25828;-83
2022/11/23 01:46:11;;;;;;;90.75;34.75;;;;;;;2.68;94.35;99929.02;1796543;78;25314;-84
2022/11/23 01:48:52;;;;;;;85.70;36.40;;;;;;;2.68;94.38;99931.17;1819206;76;26733;-83
2022/11/23 01:51:30;;;;;;;95.20;39.60;;;;;;;2.67;94.36;99925.56;1816894;77;25851;-83
2022/11/23 01:54:01;;;;;;;92.75;36.90;;;;;;;2.69;94.44;99922.27;1820710;77;27428;-85
2022/11/23 01:56:36;;;;;;;79.20;33.85;;;;;;;2.64;94.27;99925.86;1812255;77;26404;-84
2022/11/23 01:59:07;;;;;;;82.27;35.28;;;;;;;2.60;94.29;99923.18;1829445;77;26446;-84
2022/11/23 02:01:33;;;;;;;97.45;37.83;;;;;;;2.59;94.45;99922.02;1817728;77;25780;-84
2022/11/23 02:04:01;;;;;;;96.47;37.10;;;;;;;2.61;94.55;99918.73;1816636;77;25303;-84
2022/11/23 02:06:28;;;;;;;95.12;36.23;;;;;;;2.61;94.57;99918.22;1818734;77;27464;-84
2022/11/23 02:08:55;;;;;;;94.07;37.48;;;;;;;2.61;94.51;99916.09;1824622;77;25797;-83
2022/11/23 02:11:21;;;;;;;91.92;34.55;;;;;;;2.61;94.55;99921.38;1819673;76;25861;-84
2022/11/23 02:13:50;;;;;;;89.72;35.60;;;;;;;2.60;94.56;99923.66;1836172;77;25606;-83
2022/11/23 02:16:17;;;;;;;89.07;36.50;;;;;;;2.57;94.62;99927.44;1833621;76;25946;-83
2022/11/23 02:18:47;;;;;;;93.15;34.15;;;;;;;2.59;94.67;99928.62;1810975;77;27439;-85
2022/11/23 02:21:14;;;;;;;92.17;35.25;;;;;;;2.61;94.79;99935.40;1794701;79;26593;-83
2022/11/23 02:24:02;;;;;;;88.00;36.68;;;;;;;2.61;94.75;99930.63;1833048;77;25923;-84
2022/11/23 02:26:33;;;;;;;82.85;34.98;;;;;;;2.61;94.78;99938.05;1824538;77;26407;-83
2022/11/23 02:29:21;;;;;;;92.17;35.15;;;;;;;2.61;94.82;99944.66;1832980;77;25797;-84
2022/11/23 02:31:48;;;;;;;89.83;36.55;;;;;;;2.62;94.91;99939.72;1824101;77;27416;-83
2022/11/23 02:34:16;;;;;;;90.40;36.85;;;;;;;2.63;94.89;99933.95;1812326;78;25864;-85
2022/11/23 02:36:49;;;;;;;92.33;35.98;;;;;;;2.64;94.90;99939.08;1822109;76;26084;-82
2022/11/23 02:39:33;;;;;;;91.78;35.80;;;;;;;2.65;94.85;99939.91;1840672;77;26558;-83
2022/11/23 02:42:00;;;;;;;89.80;36.05;;;;;;;2.65;94.76;99938.08;1804836;78;25817;-84
2022/11/23 02:44:47;;;;;;;85.47;36.17;;;;;;;2.66;94.85;99937.59;1820865;78;27421;-85
2022/11/23 02:47:14;;;;;;;95.62;37.88;;;;;;;2.67;94.78;99936.14;1785708;78;25739;-82
2022/11/23 02:49:41;;;;;;;90.47;36.73;;;;;;;2.66;94.80;99941.08;1818136;78;25810;-82
2022/11/23 02:52:08;;;;;;;89.32;34.58;;;;;;;2.65;94.75;99938.59;1793459;78;26538;-83
2022/11/23 02:54:35;;;;;;;93.17;36.98;;;;;;;2.65;94.90;99943.36;1797584;78;25298;-82
2022/11/23 02:57:01;;;;;;;86.15;33.42;;;;;;;2.69;95.02;99944.75;1817672;77;27436;-83
2022/11/23 02:59:31;;;;;;;87.45;32.60;;;;;;;2.70;94.97;99937.63;1817031;77;25770;-83
2022/11/23 03:01:56;;;;;;;87.60;35.75;;;;;;;2.72;94.97;99940.94;1827573;77;25853;-84
2022/11/23 03:04:22;;;;;;;84.60;33.18;;;;;;;2.74;94.97;99946.42;1830651;77;26471;-83
2022/11/23 03:06:50;;;;;;;85.32;33.18;;;;;;;2.74;94.74;99940.30;1787941;76;26717;-84
2022/11/23 03:09:16;;;;;;;95.25;35.30;;;;;;;2.73;94.79;99935.52;1817479;77;27481;-83
2022/11/23 03:11:42;;;;;;;87.65;33.73;;;;;;;2.75;94.80;99940.65;1798970;78;26489;-82
2022/11/23 03:14:09;;;;;;;89.95;36.25;;;;;;;2.72;94.68;99940.45;1792892;79;25830;-84
2022/11/23 03:16:37;;;;;;;85.87;33.08;;;;;;;2.71;94.79;99944.59;1830678;76;26994;-83
2022/11/23 03:19:04;;;;;;;91.32;34.08;;;;;;;2.72;94.83;99941.78;1842453;76;25746;-83
2022/11/23 03:21:32;;;;;;;89.22;34.30;;;;;;;2.72;94.84;99939.62;1809939;78;28266;-82
2022/11/23 03:24:00;;;;;;;76.22;30.05;;;;;;;2.73;94.92;99937.33;1806334;78;25721;-83
2022/11/23 03:26:26;;;;;;;82.45;33.65;;;;;;;2.73;94.82;99939.48;1807003;78;26480;-83
2022/11/23 03:28:54;;;;;;;73.72;31.73;;;;;;;2.71;94.77;99939.30;1811488;78;25988;-82
2022/11/23 03:31:22;;;;;;;81.80;33.20;;;;;;;2.69;94.69;99937.30;1823408;77;26398;-83
2022/11/23 03:33:49;;;;;;;81.87;31.68;;;;;;;2.66;94.72;99942.39;1787369;79;28266;-83
2022/11/23 03:36:15;;;;;;;84.03;31.75;;;;;;;2.65;94.79;99941.23;1828808;77;25761;-83
2022/11/23 03:38:43;;;;;;;84.92;32.33;;;;;;;2.64;94.94;99937.75;1792537;78;26094;-83
2022/11/23 03:41:12;;;;;;;76.10;31.52;;;;;;;2.66;95.01;99929.17;1795830;78;25798;-84
2022/11/23 03:43:45;;;;;;;78.15;30.08;;;;;;;2.65;94.95;99931.46;1811917;78;25804;-84
2022/11/23 03:46:12;;;;;;;73.12;29.15;;;;;;;2.65;94.87;99931.46;1808453;78;28243;-83
2022/11/23 03:48:38;;;;;;;78.47;31.30;;;;;;;2.60;94.81;99932.44;1793277;78;25934;-84
2022/11/23 03:51:05;;;;;;;64.60;29.27;;;;;;;2.58;94.83;99938.84;1791558;79;25762;-82
2022/11/23 03:53:31;;;;;;;72.10;27.85;;;;;;;2.57;94.93;99924.80;1815950;77;25811;-83
2022/11/23 03:55:58;;;;;;;78.83;31.25;;;;;;;2.58;95.01;99923.83;1816002;78;26075;-83
2022/11/23 03:58:25;;;;;;;70.47;30.43;;;;;;;2.59;95.01;99916.73;1795836;79;27620;-83
2022/11/23 04:00:54;;;;;;;72.08;29.87;;;;;;;2.56;94.93;99920.98;1817694;77;25949;-83
2022/11/23 04:03:21;;;;;;;75.85;30.68;;;;;;;2.56;94.95;99920.98;1820785;77;26369;-83
2022/11/23 04:05:59;;;;;;;72.10;29.15;;;;;;;2.55;95.00;99926.76;1821083;77;25775;-84
2022/11/23 04:08:44;;;;;;;65.28;27.82;;;;;;;2.54;94.97;99927.76;1822255;77;25800;-84
2022/11/23 04:11:12;;;;;;;84.58;32.60;;;;;;;2.58;95.18;99933.56;1805368;78;27457;-84
2022/11/23 04:13:40;;;;;;;66.97;28.20;;;;;;;2.62;95.21;99934.43;1781109;79;25974;-84
2022/11/23 04:16:07;;;;;;;72.55;29.55;;;;;;;2.64;95.14;99937.75;1792752;78;25784;-82
2022/11/23 04:18:34;;;;;;;68.45;26.15;;;;;;;2.62;94.90;99938.40;1812111;77;25808;-83
2022/11/23 04:21:00;;;;;;;73.35;29.40;;;;;;;2.62;94.98;99946.33;1813633;77;25614;-82
2022/11/23 04:23:27;;;;;;;67.97;27.82;;;;;;;2.63;95.01;99944.01;1825492;77;27522;-84
2022/11/23 04:25:54;;;;;;;63.95;26.60;;;;;;;2.64;94.81;99943.52;1825019;77;25779;-83
2022/11/23 04:28:22;;;;;;;69.82;29.15;;;;;;;2.65;94.81;99934.63;1828030;77;25711;-84
2022/11/23 04:30:48;;;;;;;58.13;25.55;;;;;;;2.65;94.66;99942.56;1793709;78;25874;-84
2022/11/23 04:33:15;;;;;;;58.42;25.35;;;;;;;2.61;94.45;99939.87;1830771;77;25263;-83
2022/11/23 04:35:43;;;;;;;60.25;26.07;;;;;;;2.55;94.35;99943.11;1822374;78;27468;-83
2022/11/23 04:38:10;;;;;;;66.15;27.50;;;;;;;2.52;94.50;99942.11;1799222;78;25758;-83
2022/11/23 04:40:37;;;;;;;77.53;35.40;;;;;;;2.51;94.61;99946.55;1822113;77;25279;-84
2022/11/23 04:43:05;;;;;;;81.32;38.92;;;;;;;2.50;94.70;99944.91;1821238;77;25752;-84
2022/11/23 04:45:39;;;;;;;76.77;31.90;;;;;;;2.52;94.82;99946.91;1798562;78;25850;-84
2022/11/23 04:48:07;;;;;;;80.25;31.02;;;;;;;2.53;94.84;99951.68;1826421;77;27645;-84
2022/11/23 04:50:36;;;;;;;74.20;31.55;;;;;;;2.53;94.86;99950.36;1803188;78;25903;-83
2022/11/23 04:53:04;;;;;;;73.02;29.82;;;;;;;2.51;94.79;99942.59;1823107;78;26003;-83
2022/11/23 04:55:32;;;;;;;71.65;28.70;;;;;;;2.51;94.83;99945.72;1817007;78;26412;-82
2022/11/23 04:58:00;;;;;;;64.85;28.15;;;;;;;2.50;94.96;99946.23;1818765;76;26398;-84
2022/11/23 05:00:29;;;;;;;73.35;32.10;;;;;;;2.51;94.98;99937.30;1829063;77;28379;-83
2022/11/23 05:03:00;;;;;;;67.15;27.58;;;;;;;2.53;94.95;99938.46;1819948;76;25825;-83
2022/11/23 05:05:29;;;;;;;60.85;26.60;;;;;;;2.54;95.09;99940.14;1821030;76;25782;-83
2022/11/23 05:07:57;;;;;;;62.20;29.00;;;;;;;2.52;94.85;99946.07;1829448;76;25854;-83
2022/11/23 05:10:26;;;;;;;61.35;28.73;;;;;;;2.52;94.93;99944.75;1822122;76;26392;-85
2022/11/23 05:12:54;;;;;;;61.30;25.55;;;;;;;2.54;94.96;99944.11;1819374;76;27458;-84
2022/11/23 05:15:21;;;;;;;63.05;28.65;;;;;;;2.51;94.80;99934.66;1826924;76;25497;-84
2022/11/23 05:17:48;;;;;;;56.48;25.52;;;;;;;2.46;94.72;99931.63;1825813;76;26392;-85
2022/11/23 05:20:16;;;;;;;54.00;24.40;;;;;;;2.41;94.62;99936.55;1826149;77;26174;-84
2022/11/23 05:22:45;;;;;;;60.78;27.93;;;;;;;2.38;94.68;99938.65;1792590;78;25830;-84
2022/11/23 05:25:13;;;;;;;55.90;24.55;;;;;;;2.33;94.79;99940.45;1768795;79;28270;-83
2022/11/23 05:27:39;;;;;;;55.10;25.05;;;;;;;2.35;94.96;99943.25;1781313;78;25995;-84
2022/11/23 05:30:07;;;;;;;57.90;25.30;;;;;;;2.36;95.01;99937.48;1820705;76;25326;-84
2022/11/23 05:32:34;;;;;;;63.45;28.32;;;;;;;2.37;95.02;99940.48;1808820;78;25782;-83
2022/11/23 05:35:00;;;;;;;65.30;24.85;;;;;;;2.39;95.04;99941.16;1821889;77;25814;-84
2022/11/23 05:37:28;;;;;;;56.65;23.75;;;;;;;2.42;95.10;99934.75;1808112;78;27530;-84
2022/11/23 05:40:00;;;;;;;46.90;22.15;;;;;;;2.42;95.00;99942.17;1788150;78;25775;-82
2022/11/23 05:42:28;;;;;;;54.18;23.98;;;;;;;2.41;94.89;99944.48;1832305;77;25838;-84
2022/11/23 05:44:57;;;;;;;47.20;22.05;;;;;;;2.39;94.80;99941.64;1828773;76;25834;-82
2022/11/23 05:47:26;;;;;;;59.67;26.35;;;;;;;2.38;94.83;99947.41;1831761;76;25757;-86
2022/11/23 05:49:52;;;;;;;60.28;28.27;;;;;;;2.37;94.89;99944.94;1836163;76;27423;-83
2022/11/23 05:52:20;;;;;;;67.50;29.50;;;;;;;2.34;94.89;99936.33;1791952;76;25807;-83
2022/11/23 05:54:46;;;;;;;57.88;27.17;;;;;;;2.34;94.93;99948.22;1834002;76;26697;-83
2022/11/23 05:57:14;;;;;;;61.48;26.45;;;;;;;2.35;95.00;99945.09;1827934;76;25788;-84
2022/11/23 05:59:43;;;;;;;50.73;24.30;;;;;;;2.34;94.94;99942.09;1810634;77;25985;-82
2022/11/23 06:02:11;;;;;;;50.35;24.20;;;;;;;2.30;94.82;99941.58;1791267;78;27473;-82
2022/11/23 06:04:37;;;;;;;47.95;23.65;;;;;;;2.26;94.79;99943.34;1821207;77;25891;-82
2022/11/23 06:07:05;;;;;;;50.20;23.52;;;;;;;2.23;94.83;99946.27;1787693;78;25802;-82
2022/11/23 06:09:37;;;;;;;48.25;20.82;;;;;;;2.20;94.76;99947.91;1803014;78;25871;-81
2022/11/23 06:12:06;;;;;;;54.67;25.52;;;;;;;2.18;94.89;99948.03;1829315;77;25913;-82
2022/11/23 06:14:33;;;;;;;48.65;21.68;;;;;;;2.16;94.90;99953.16;1827034;77;27425;-82
2022/11/23 06:16:59;;;;;;;50.83;22.58;;;;;;;2.15;95.00;99953.64;1813695;77;25813;-83
2022/11/23 06:19:28;;;;;;;50.55;25.20;;;;;;;2.17;95.04;99948.20;1819201;77;25952;-82
2022/11/23 06:21:56;;;;;;;63.02;30.12;;;;;;;2.19;95.08;99947.07;1821150;77;26536;-81
2022/11/23 06:24:24;;;;;;;57.60;26.75;;;;;;;2.21;95.06;99953.52;1815716;77;26270;-82
2022/11/23 06:26:52;;;;;;;54.75;23.22;;;;;;;2.18;95.00;99959.12;1820773;76;27628;-81
2022/11/23 06:29:19;;;;;;;57.53;24.12;;;;;;;2.16;95.07;99961.08;1839526;76;25873;-82
2022/11/23 06:31:46;;;;;;;49.05;24.12;;;;;;;2.18;95.14;99961.24;1822825;77;25845;-82
2022/11/23 06:34:13;;;;;;;58.55;25.90;;;;;;;2.17;95.16;99964.05;1829786;77;26027;-83
2022/11/23 06:36:40;;;;;;;51.28;24.75;;;;;;;2.16;95.10;99964.53;1824774;76;25484;-82
2022/11/23 06:39:06;;;;;;;48.28;22.45;;;;;;;2.19;95.20;99966.05;1796666;78;27446;-82
2022/11/23 06:41:34;;;;;;;42.25;21.50;;;;;;;2.21;95.19;99966.73;1814967;77;26600;-82
2022/11/23 06:44:00;;;;;;;56.75;25.57;;;;;;;2.23;95.09;99970.05;1760837;79;26136;-82
2022/11/23 06:46:28;;;;;;;52.67;24.98;;;;;;;2.24;95.08;99975.21;1805189;78;25949;-84
2022/11/23 06:48:55;;;;;;;52.58;25.50;;;;;;;2.26;94.97;99964.48;1779182;79;25282;-81
2022/11/23 06:51:21;;;;;;;50.28;24.25;;;;;;;2.27;94.94;99972.25;1811194;77;28226;-85
2022/11/23 06:53:49;;;;;;;76.28;32.35;;;;;;;2.29;95.07;99974.25;1814140;76;25976;-84
2022/11/23 06:56:16;;;;;;;59.18;29.90;;;;;;;2.33;95.17;99973.48;1789633;77;25889;-82
2022/11/23 06:58:42;;;;;;;46.92;22.02;;;;;;;2.37;95.15;99974.00;1801895;78;26134;-81
2022/11/23 07:01:11;;;;;;;54.53;25.10;;;;;;;2.37;94.99;99974.84;1832120;76;25576;-82
2022/11/23 07:03:42;;;;;;;58.50;27.65;;;;;;;2.37;95.02;99974.84;1796387;78;27429;-82
2022/11/23 07:06:10;;;;;;;56.58;26.48;;;;;;;2.34;94.80;99976.45;1795106;78;26325;-82
2022/11/23 07:08:42;;;;;;;49.95;23.92;;;;;;;2.35;95.05;99974.16;1787347;78;26351;-82
2022/11/23 07:11:11;;;;;;;53.10;26.57;;;;;;;2.34;94.78;99976.45;1815604;77;25786;-83
2022/11/23 07:13:38;;;;;;;89.60;38.73;;;;;;;2.32;94.68;99981.05;1799481;78;25917;-83
2022/11/23 07:16:05;;;;;;;57.33;29.55;;;;;;;2.29;94.67;99982.66;1761208;79;28266;-82
2022/11/23 07:18:32;;;;;;;57.83;24.72;;;;;;;2.28;94.58;99986.30;1829720;77;25759;-84
2022/11/23 07:20:59;;;;;;;51.37;23.35;;;;;;;2.25;94.55;99991.39;1819723;77;25733;-83
2022/11/23 07:23:26;;;;;;;45.90;21.60;;;;;;;2.21;94.43;99989.19;1828733;77;25793;-83
2022/11/23 07:25:53;;;;;;;50.73;21.95;;;;;;;2.20;94.60;99984.90;1815763;78;26161;-83
2022/11/23 07:28:19;;;;;;;41.33;20.50;;;;;;;2.19;94.57;99988.50;1798298;78;28396;-84
2022/11/23 07:30:48;;;;;;;46.65;23.62;;;;;;;2.18;94.58;99989.50;1827853;77;25770;-83
2022/11/23 07:33:16;;;;;;;39.98;20.45;;;;;;;2.16;94.52;99995.42;1803748;77;26065;-82
2022/11/23 07:35:44;;;;;;;50.85;21.97;;;;;;;2.11;94.50;99994.54;1836702;77;25836;-82
2022/11/23 07:38:10;;;;;;;48.40;23.73;;;;;;;2.08;94.58;99989.55;1815601;77;26084;-83
2022/11/23 07:40:38;;;;;;;55.65;27.22;;;;;;;2.09;94.72;99987.73;1824612;77;28310;-83
2022/11/23 07:43:06;;;;;;;56.95;26.25;;;;;;;2.08;94.72;99984.73;1811392;77;25818;-83
2022/11/23 07:45:33;;;;;;;53.42;24.80;;;;;;;2.09;94.93;99982.45;1829890;77;25883;-82
2022/11/23 07:48:07;;;;;;;53.68;26.93;;;;;;;2.10;94.90;99988.06;1813968;77;25905;-83
2022/11/23 07:50:36;;;;;;;49.03;23.47;;;;;;;2.10;94.86;99986.26;1783865;77;26446;-83
2022/11/23 07:53:04;;;;;;;49.75;23.50;;;;;;;2.09;94.96;99991.22;1814596;77;27657;-82
2022/11/23 07:55:31;;;;;;;42.17;20.92;;;;;;;2.10;95.00;99987.58;1821968;77;25923;-83
2022/11/23 07:57:58;;;;;;;58.70;28.30;;;;;;;2.10;94.92;99992.86;1833021;77;25870;-84
2022/11/23 08:00:26;;;;;;;48.42;23.30;;;;;;;2.13;95.05;99999.19;1800512;78;25897;-84
2022/11/23 08:02:53;;;;;;;46.88;22.87;;;;;;;2.13;94.86;100004.95;1801165;78;25886;-83
2022/11/23 08:05:20;;;;;;;76.57;34.60;;;;;;;2.11;94.85;100006.43;1810274;77;28543;-82
2022/11/23 08:07:46;;;;;;;129.18;55.12;;;;;;;2.11;94.79;99999.83;1813473;77;25993;-83
2022/11/23 08:10:13;;;;;;;118.80;49.20;;;;;;;2.15;94.96;100005.64;1820565;77;26224;-83
2022/11/23 08:12:39;;;;;;;120.00;49.13;;;;;;;2.18;95.06;100005.35;1813771;77;25782;-83
2022/11/23 08:15:06;;;;;;;95.47;41.18;;;;;;;2.24;95.21;100007.40;1814754;77;26439;-83
2022/11/23 08:17:33;;;;;;;104.70;45.48;;;;;;;2.24;94.95;100012.20;1814925;77;28564;-83
2022/11/23 08:20:00;;;;;;;279.10;105.15;;;;;;;2.29;95.37;100016.53;1809739;77;25759;-82
2022/11/23 08:22:26;;;;;;;111.52;47.20;;;;;;;2.32;94.98;100014.09;1813141;77;25783;-83
2022/11/23 08:24:53;;;;;;;178.60;71.70;;;;;;;2.30;94.70;100017.37;1814403;77;25869;-83
2022/11/23 08:27:19;;;;;;;257.55;96.45;;;;;;;2.26;94.47;100016.00;1817135;77;25798;-82
2022/11/23 08:29:46;;;;;;;218.10;85.42;;;;;;;2.25;94.61;100010.36;1815336;77;27444;-83
2022/11/23 08:32:13;;;;;;;200.97;82.27;;;;;;;2.29;94.69;100017.02;1813060;77;26336;-84
2022/11/23 08:34:42;;;;;;;182.70;75.37;;;;;;;2.24;94.34;100017.97;1816813;77;26075;-83
2022/11/23 08:37:09;;;;;;;94.80;42.88;;;;;;;2.23;94.54;100020.25;1791274;78;25783;-83
2022/11/23 08:39:35;;;;;;;69.27;33.83;;;;;;;2.22;94.41;100014.13;1816643;77;25790;-84
2022/11/23 08:42:02;;;;;;;52.30;25.55;;;;;;;2.25;94.62;100020.45;1833034;76;27447;-83
2022/11/23 08:44:28;;;;;;;40.85;21.20;;;;;;;2.25;94.46;100016.48;1832477;77;26054;-83
2022/11/23 08:46:54;;;;;;;54.98;24.37;;;;;;;2.25;94.45;100012.52;1825984;76;25794;-84
2022/11/23 08:49:21;;;;;;;41.20;21.15;;;;;;;2.26;94.44;100019.48;1795168;78;26459;-82
2022/11/23 08:51:47;;;;;;;40.00;21.30;;;;;;;2.27;94.32;100026.91;1827932;77;25879;-83
2022/11/23 08:54:13;;;;;;;41.45;20.77;;;;;;;2.27;94.32;100026.42;1820164;78;27460;-83
2022/11/23 08:56:40;;;;;;;44.08;19.67;;;;;;;2.27;94.25;100023.78;1788511;78;25775;-83
2022/11/23 08:59:07;;;;;;;46.20;21.77;;;;;;;2.26;94.25;100023.94;1801814;78;25824;-82
2022/11/23 09:01:33;;;;;;;44.85;21.75;;;;;;;2.27;94.16;100023.78;1806137;78;25886;-82
2022/11/23 09:04:03;;;;;;;43.40;22.45;;;;;;;2.23;93.87;100023.73;1817322;76;25981;-82
2022/11/23 09:06:33;;;;;;;44.65;21.55;;;;;;;2.20;93.87;100025.84;1783240;78;27485;-83
2022/11/23 09:09:00;;;;;;;41.02;22.67;;;;;;;2.22;94.11;100023.89;1778018;78;25862;-82
2022/11/23 09:11:26;;;;;;;40.25;21.23;;;;;;;2.23;94.09;100025.05;1812229;76;26422;-86
2022/11/23 09:13:53;;;;;;;46.83;23.77;;;;;;;2.23;94.08;100023.73;1813928;76;26653;-84
2022/11/23 09:16:20;;;;;;;40.25;21.02;;;;;;;2.24;94.02;100025.41;1818672;76;25758;-87
2022/11/23 09:18:48;;;;;;;44.20;21.37;;;;;;;2.26;93.98;100021.29;1819551;76;27439;-88
2022/11/23 09:21:20;;;;;;;50.33;25.62;;;;;;;2.25;94.01;100022.25;1828949;76;25772;-92
2022/11/23 09:23:50;;;;;;;45.95;23.75;;;;;;;2.26;94.01;100020.81;1825898;76;25777;-85
2022/11/23 09:26:16;;;;;;;51.13;24.00;;;;;;;2.28;94.01;100022.81;1828497;77;25847;-85
2022/11/23 09:28:42;;;;;;;52.03;27.25;;;;;;;2.27;93.79;100023.78;1836256;77;25727;-85
2022/11/23 09:31:09;;;;;;;48.55;24.50;;;;;;;2.23;93.58;100033.46;1817980;76;27459;-81
2022/11/23 09:33:35;;;;;;;96.82;40.90;;;;;;;2.22;93.63;100029.17;1791750;78;25678;-81
2022/11/23 09:36:03;;;;;;;75.05;35.00;;;;;;;2.21;93.70;100039.39;1809629;77;25869;-80
2022/11/23 09:38:30;;;;;;;56.92;31.48;;;;;;;2.19;93.62;100037.38;1777701;78;26270;-80
2022/11/23 09:41:27;;;;;;;42.75;24.35;;;;;;;2.18;93.67;100039.70;1812377;77;26417;-81
2022/11/23 09:44:11;;;;;;;41.98;22.22;;;;;;;2.16;93.48;100040.34;1819807;78;28375;-80
2022/11/23 09:47:09;;;;;;;41.02;21.90;;;;;;;2.18;94.49;100037.06;1829120;77;26849;-81
2022/11/23 09:49:46;;;;;;;45.20;24.45;;;;;;;2.37;96.17;100034.30;1820670;77;25738;-80
2022/11/23 09:52:17;;;;;;;38.65;22.02;;;;;;;2.55;96.24;100032.50;1805038;78;26432;-80
2022/11/23 09:54:45;;;;;;;40.67;22.82;;;;;;;2.71;96.27;100023.91;1820074;76;25444;-81
2022/11/23 09:57:15;;;;;;;41.80;22.30;;;;;;;2.85;95.94;100016.76;1822059;76;28892;-80
2022/11/23 09:59:53;;;;;;;37.88;19.55;;;;;;;2.92;95.04;100020.47;1826319;76;33308;-80
2022/11/23 10:02:23;;;;;;;40.95;22.85;;;;;;;3.00;95.15;100017.41;1817758;77;25746;-79
2022/11/23 10:04:52;;;;;;;43.13;23.35;;;;;;;3.12;94.96;100015.36;1793840;78;26487;-80
2022/11/23 10:07:59;;;;;;;44.05;23.65;;;;;;;3.21;94.05;100009.64;1812003;78;25859;-81
2022/11/23 10:10:44;;;;;;;41.20;23.73;;;;;;;3.27;94.20;100003.23;1822315;76;27468;-82
2022/11/23 10:13:35;;;;;;;43.20;25.17;;;;;;;3.41;94.41;99991.23;1818829;77;25885;-81
2022/11/23 10:16:28;;;;;;;67.42;37.10;;;;;;;3.49;93.53;99985.50;1828311;77;25913;-81
2022/11/23 10:19:17;;;;;;;40.50;22.55;;;;;;;3.52;92.63;99985.69;1769059;77;26542;-80
2022/11/23 10:22:05;;;;;;;69.30;35.95;;;;;;;3.42;91.42;99981.80;1819147;76;25726;-81
2022/11/23 10:24:46;;;;;;;46.10;25.15;;;;;;;3.36;91.42;99977.66;1812487;77;27551;-81
2022/11/23 10:27:18;;;;;;;50.95;26.17;;;;;;;3.23;90.71;99977.23;1826786;76;26192;-82
2022/11/23 10:29:44;;;;;;;44.50;24.92;;;;;;;3.12;90.83;99973.02;1812793;77;25803;-82
2022/11/23 10:32:35;;;;;;;34.38;19.62;;;;;;;3.09;90.94;99977.29;1816391;76;26461;-82
2022/11/23 10:35:18;;;;;;;52.37;28.37;;;;;;;3.03;90.95;99975.27;1826737;77;25754;-81
2022/11/23 10:37:44;;;;;;;45.35;25.68;;;;;;;2.98;91.06;99969.59;1815544;77;28536;-82
2022/11/23 10:40:22;;;;;;;58.25;32.40;;;;;;;2.96;91.26;99968.44;1804518;77;25796;-82
2022/11/23 10:42:55;;;;;;;60.20;29.75;;;;;;;2.93;91.20;99972.70;1820188;77;25920;-82
2022/11/23 10:45:28;;;;;;;43.23;24.50;;;;;;;2.90;91.22;99974.34;1809371;78;26100;-82
2022/11/23 10:47:58;;;;;;;42.13;24.27;;;;;;;2.86;91.03;99976.13;1821073;77;25302;-82
2022/11/23 10:50:29;;;;;;;43.65;22.75;;;;;;;2.77;90.84;99975.22;1819144;77;27430;-82
2022/11/23 10:53:02;;;;;;;;;;;;;;;2.70;90.74;99971.52;1827669;78;25809;-81
2022/11/23 10:55:32;;;;;;;29.85;16.85;;;;;;;2.64;90.64;99976.09;1781968;77;25777;-81
2022/11/23 10:57:59;;;;;;;29.35;16.87;;;;;;;2.55;90.65;99974.83;1834171;76;25847;-82
2022/11/23 11:00:28;;;;;;;34.78;18.60;;;;;;;2.51;90.80;99962.41;1816010;76;25890;-82
2022/11/23 11:02:57;;;;;;;32.23;17.87;;;;;;;2.46;90.68;99960.70;1821271;78;28278;-81
2022/11/23 11:05:42;;;;;;;39.10;19.82;;;;;;;2.45;90.96;99957.73;1811133;78;25756;-82
2022/11/23 11:08:16;;;;;;;40.85;22.05;;;;;;;2.43;91.12;99957.54;1825798;76;25898;-81
2022/11/23 11:10:49;;;;;;;47.33;24.70;;;;;;;2.45;91.50;99954.25;1819688;76;25718;-81
2022/11/23 11:13:31;;;;;;;53.15;24.67;;;;;;;2.45;91.60;99955.58;1813308;76;26041;-81
2022/11/23 11:16:02;;;;;;;66.00;28.47;;;;;;;2.45;91.53;99952.93;1836796;76;27436;-81
2022/11/23 11:18:34;;;;;;;67.90;30.80;;;;;;;2.40;91.46;99954.70;1819768;76;25948;-82
2022/11/23 11:21:06;;;;;;;79.32;36.03;;;;;;;2.37;91.61;99956.83;1808875;76;25778;-82
2022/11/23 11:23:37;;;;;;;81.32;33.40;;;;;;;2.39;91.85;99949.09;1830134;76;25815;-82
2022/11/23 11:26:12;;;;;;;52.00;25.95;;;;;;;2.41;91.72;99954.22;1817432;76;26132;-81
2022/11/23 11:28:46;;;;;;;52.53;28.60;;;;;;;2.37;91.64;99949.73;1798665;78;27449;-81
2022/11/23 11:31:36;;;;;;;44.48;25.62;;;;;;;2.38;91.82;99953.19;1819635;76;25901;-82
2022/11/23 11:34:32;;;;;;;44.00;23.98;;;;;;;2.38;91.84;99951.38;1805099;78;25942;-82
2022/11/23 11:37:45;;;;;;;41.37;22.40;;;;;;;2.40;91.98;99951.22;1805700;78;27014;-82